Algiers, Indiana
Current Conditions -  °F | °C
As of 8:35 PM on Thursday 27 Nov 2014 (Local Time) from KDCY Reporting Station
Overcast Overcast  
Wind Chill: 17°   Ceiling: 2400
Heat Index: 28°   Visibility: 10mi
Dew Point: 22°   Wind: 13mph
Humidity: 79%   Direction: 320°NW
Pressure: 30.45"   Gusts: NA
Location:  38.4723°N, 87.3105°W
Report Text: KDCY 280235Z AUTO 32011KT 10SM OVC024 M02/M06 A3045 RMK AO2 T10241056
Loading
Personal Weather Stations






























Interactive Weather Map New forecast layout! Learn more

10-Day Weather Forecast

Advertisements
Track Severe Weather on mobile